createdAt,value
2019-05-30T00:00:17.669Z,98967.14
2019-05-30T00:02:45.075Z,98966.53
2019-05-30T00:05:16.926Z,98961.31
2019-05-30T00:07:48.511Z,98955.52
2019-05-30T00:10:20.399Z,98957.55
2019-05-30T00:12:51.969Z,98962.32
2019-05-30T00:15:23.553Z,98962.05
2019-05-30T00:17:55.195Z,98967.13
2019-05-30T00:20:26.776Z,98963.20
2019-05-30T00:22:58.840Z,98957.08
2019-05-30T00:25:30.492Z,98954.99
2019-05-30T00:28:05.123Z,98954.47
2019-05-30T00:30:36.655Z,98955.77
2019-05-30T00:33:08.229Z,98958.88
2019-05-30T00:35:39.807Z,98962.48
2019-05-30T00:38:11.380Z,98956.19
2019-05-30T00:40:43.050Z,98953.02
2019-05-30T00:43:14.699Z,98951.08
2019-05-30T00:45:46.286Z,98956.94
2019-05-30T00:48:17.830Z,98957.02
2019-05-30T00:50:49.431Z,98963.45
2019-05-30T00:53:20.992Z,98962.46
2019-05-30T00:55:52.585Z,98963.20
2019-05-30T00:58:24.162Z,98969.98
2019-05-30T01:00:56.751Z,98969.00
2019-05-30T01:03:28.382Z,98972.25
2019-05-30T01:06:00.820Z,98968.97
2019-05-30T01:08:32.422Z,98971.50
2019-05-30T01:11:05.198Z,98966.80
2019-05-30T01:13:36.933Z,98968.58
2019-05-30T01:16:08.530Z,98966.47
2019-05-30T01:18:40.108Z,98965.73
2019-05-30T01:21:11.671Z,98962.70
2019-05-30T01:23:46.309Z,98962.94
2019-05-30T01:26:17.875Z,98960.94
2019-05-30T01:28:49.511Z,98962.41
2019-05-30T01:31:21.179Z,98964.92
2019-05-30T01:33:52.765Z,98967.02
2019-05-30T01:36:25.377Z,98960.66
2019-05-30T01:38:57.685Z,98968.56
2019-05-30T01:41:29.327Z,98968.80
2019-05-30T01:44:01.929Z,98968.02
2019-05-30T01:46:33.585Z,98959.37
2019-05-30T01:49:06.675Z,98964.58
2019-05-30T01:51:38.731Z,98963.36
2019-05-30T01:54:10.322Z,98961.30
2019-05-30T01:56:41.889Z,98963.23
2019-05-30T01:59:13.524Z,98956.88
2019-05-30T02:01:45.117Z,98954.95
2019-05-30T02:04:16.684Z,98957.80
2019-05-30T02:06:48.305Z,98964.39
2019-05-30T02:09:19.810Z,98968.34
2019-05-30T02:11:51.351Z,98966.77
2019-05-30T02:14:22.935Z,98961.70
2019-05-30T02:16:54.479Z,98964.31
2019-05-30T02:19:26.058Z,98964.83
2019-05-30T02:21:57.608Z,98956.11
2019-05-30T02:24:29.179Z,98960.92
2019-05-30T02:27:02.089Z,98960.48
2019-05-30T02:29:33.803Z,98964.47
2019-05-30T02:32:07.051Z,98962.02
2019-05-30T02:34:38.663Z,98963.69
2019-05-30T02:37:12.586Z,98961.87
2019-05-30T02:39:43.482Z,98969.60
2019-05-30T02:42:15.054Z,98971.03
2019-05-30T02:44:46.619Z,98970.28
2019-05-30T02:47:22.188Z,98975.09
2019-05-30T02:49:51.443Z,98972.96
2019-05-30T02:52:22.999Z,98974.02
2019-05-30T02:54:54.589Z,98979.94
2019-05-30T02:57:26.155Z,98974.89
2019-05-30T02:59:57.725Z,98979.50
2019-05-30T03:02:29.302Z,98987.22
2019-05-30T03:05:01.681Z,98984.85
2019-05-30T03:07:34.688Z,98981.02
2019-05-30T03:10:07.643Z,98986.30
2019-05-30T03:12:40.325Z,98981.09
2019-05-30T03:15:14.607Z,98974.98
2019-05-30T03:17:45.451Z,98985.32
2019-05-30T03:20:22.836Z,98987.25
2019-05-30T03:22:50.629Z,98981.25
2019-05-30T03:25:22.205Z,98983.02
2019-05-30T03:27:56.405Z,98985.48
2019-05-30T03:30:29.622Z,98991.83
2019-05-30T03:33:15.706Z,98990.21
2019-05-30T03:35:41.774Z,98990.00
2019-05-30T03:38:10.476Z,98995.13
2019-05-30T03:40:42.403Z,99001.56
2019-05-30T03:43:15.992Z,99000.27
2019-05-30T03:45:48.267Z,99004.53
2019-05-30T03:48:21.798Z,99004.09
2019-05-30T03:50:55.639Z,99013.97
2019-05-30T03:53:27.190Z,99009.98
2019-05-30T03:56:09.319Z,99011.83
2019-05-30T03:58:51.931Z,99010.97
2019-05-30T04:01:31.540Z,99018.25
2019-05-30T04:04:16.913Z,99018.17
2019-05-30T04:06:54.257Z,99022.08
2019-05-30T04:09:27.661Z,99027.76
2019-05-30T04:12:16.727Z,99033.28
2019-05-30T04:14:52.657Z,99035.02
2019-05-30T04:17:25.207Z,99036.50
2019-05-30T04:19:56.761Z,99036.70
2019-05-30T04:22:28.340Z,99037.62
2019-05-30T04:24:59.913Z,99040.34
2019-05-30T04:27:31.517Z,99037.47
2019-05-30T04:30:03.092Z,99047.53
2019-05-30T04:32:35.752Z,99049.47
2019-05-30T04:35:08.058Z,99053.74
2019-05-30T04:37:39.725Z,99045.85
2019-05-30T04:40:13.271Z,99056.80
2019-05-30T04:42:44.778Z,99051.11
2019-05-30T04:45:17.917Z,99045.22
2019-05-30T04:47:49.822Z,99054.11
2019-05-30T04:50:21.391Z,99053.88
2019-05-30T04:52:53.084Z,99053.99
2019-05-30T04:55:24.644Z,99056.59
2019-05-30T04:57:56.288Z,99050.50
2019-05-30T05:00:27.988Z,99048.45
2019-05-30T05:02:59.543Z,99048.13
2019-05-30T05:05:31.128Z,99050.41
2019-05-30T05:08:02.699Z,99047.75
2019-05-30T05:10:34.263Z,99052.03
2019-05-30T05:13:05.844Z,99052.73
2019-05-30T05:15:37.430Z,99054.81
2019-05-30T05:18:09.004Z,99057.84
2019-05-30T05:20:40.580Z,99056.69
2019-05-30T05:23:13.079Z,99057.41
2019-05-30T05:25:59.829Z,99059.55
2019-05-30T05:28:18.099Z,99066.92
2019-05-30T05:30:50.786Z,99060.61
2019-05-30T05:33:22.640Z,99062.17
2019-05-30T05:35:54.246Z,99064.42
2019-05-30T05:38:25.818Z,99065.95
2019-05-30T05:40:57.408Z,99068.23
2019-05-30T05:43:28.991Z,99069.50
2019-05-30T05:46:00.561Z,99073.25
2019-05-30T05:48:32.193Z,99071.39
2019-05-30T05:51:04.155Z,99080.25
2019-05-30T05:53:35.776Z,99081.60
2019-05-30T05:56:07.359Z,99086.93
2019-05-30T05:58:38.969Z,99083.77
2019-05-30T06:01:10.553Z,99084.86
2019-05-30T06:03:42.152Z,99093.08
2019-05-30T06:06:13.745Z,99080.97
2019-05-30T06:08:45.331Z,99084.36
2019-05-30T06:11:16.897Z,99083.23
2019-05-30T06:13:48.433Z,99089.58
2019-05-30T06:16:20.024Z,99085.66
2019-05-30T06:18:51.571Z,99093.20
2019-05-30T06:21:23.504Z,99089.84
2019-05-30T06:23:55.107Z,99090.24
2019-05-30T06:26:27.953Z,99093.60
2019-05-30T06:28:59.778Z,99089.66
2019-05-30T06:31:31.372Z,99090.69
2019-05-30T06:34:02.922Z,99093.45
2019-05-30T06:36:34.519Z,99091.35
2019-05-30T06:39:08.704Z,99091.96
2019-05-30T06:41:40.321Z,99096.22
2019-05-30T06:44:11.930Z,99094.55
2019-05-30T06:46:43.522Z,99097.38
2019-05-30T06:49:15.110Z,99106.09
2019-05-30T06:51:46.687Z,99096.07
2019-05-30T06:54:18.251Z,99094.39
2019-05-30T06:56:49.888Z,99088.44
2019-05-30T06:59:21.482Z,99099.95
2019-05-30T07:01:53.134Z,99089.98
2019-05-30T07:04:25.597Z,99092.59
2019-05-30T07:06:58.271Z,99094.97
2019-05-30T07:09:30.987Z,99091.92
2019-05-30T07:12:02.668Z,99096.86
2019-05-30T07:14:34.268Z,99099.89
2019-05-30T07:17:05.869Z,99102.97
2019-05-30T07:19:37.905Z,99106.34
2019-05-30T07:22:09.604Z,99104.16
2019-05-30T07:24:41.161Z,99103.67
2019-05-30T07:27:12.773Z,99110.27
2019-05-30T07:29:44.393Z,99113.66
2019-05-30T07:32:15.999Z,99114.30
2019-05-30T07:34:47.588Z,99119.10
2019-05-30T07:37:19.219Z,99118.43
2019-05-30T07:39:50.800Z,99117.45
2019-05-30T07:42:22.389Z,99116.67
2019-05-30T07:44:53.990Z,99121.58
2019-05-30T07:47:26.011Z,99125.22
2019-05-30T07:49:57.582Z,99132.87
2019-05-30T07:52:29.164Z,99134.31
2019-05-30T07:55:00.780Z,99131.67
2019-05-30T07:57:32.936Z,99133.25
2019-05-30T08:00:06.157Z,99130.50
2019-05-30T08:02:38.046Z,99132.39
2019-05-30T08:05:23.478Z,99142.47
2019-05-30T08:07:44.088Z,99136.83
2019-05-30T08:10:18.995Z,99135.50
2019-05-30T08:12:50.597Z,99135.83
2019-05-30T08:15:22.187Z,99131.06
2019-05-30T08:17:54.776Z,99126.80
2019-05-30T08:20:27.537Z,99129.11
2019-05-30T08:22:59.205Z,99129.26
2019-05-30T08:25:30.825Z,99119.64
2019-05-30T08:28:03.489Z,99124.92
2019-05-30T08:30:35.122Z,99117.77
2019-05-30T08:33:06.746Z,99109.36
2019-05-30T08:35:49.075Z,99109.71
2019-05-30T08:38:13.374Z,99104.38
2019-05-30T08:40:45.001Z,99101.02
2019-05-30T08:43:16.588Z,99104.45
2019-05-30T08:45:48.215Z,99093.37
2019-05-30T08:48:19.800Z,99098.17
2019-05-30T08:50:52.604Z,99093.72
2019-05-30T08:53:24.178Z,99092.31
2019-05-30T08:55:55.852Z,99095.72
2019-05-30T08:58:27.425Z,99101.41
2019-05-30T09:00:59.039Z,99098.10
2019-05-30T09:03:30.615Z,99096.22
2019-05-30T09:06:03.997Z,99089.58
2019-05-30T09:08:35.990Z,99092.08
2019-05-30T09:11:07.661Z,99085.06
2019-05-30T09:13:40.326Z,99089.26
2019-05-30T09:16:12.044Z,99090.59
2019-05-30T09:18:43.655Z,99080.63
2019-05-30T09:21:15.286Z,99086.95
2019-05-30T09:23:47.973Z,99080.80
2019-05-30T09:26:19.821Z,99083.45
2019-05-30T09:28:51.535Z,99076.31
2019-05-30T09:31:23.139Z,99080.14
2019-05-30T09:33:54.766Z,99075.46
2019-05-30T09:36:26.337Z,99073.81
2019-05-30T09:38:58.530Z,99076.80
2019-05-30T09:41:30.181Z,99069.80
2019-05-30T09:44:01.755Z,99063.82
2019-05-30T09:46:35.178Z,99070.98
2019-05-30T09:49:06.885Z,99066.66
2019-05-30T09:51:38.459Z,99073.66
2019-05-30T09:54:10.166Z,99065.17
2019-05-30T09:56:42.031Z,99071.01
2019-05-30T09:59:14.855Z,99062.00
2019-05-30T10:01:46.435Z,99063.02
2019-05-30T10:04:18.410Z,99063.02
2019-05-30T10:06:50.502Z,99060.33
2019-05-30T10:09:22.185Z,99065.70
2019-05-30T10:11:53.768Z,99062.34
2019-05-30T10:14:25.875Z,99061.67
2019-05-30T10:16:58.108Z,99050.14
2019-05-30T10:19:29.908Z,99049.30
2019-05-30T10:22:01.862Z,99053.63
2019-05-30T10:24:33.556Z,99050.30
2019-05-30T10:27:05.148Z,99050.14
2019-05-30T10:29:37.306Z,99042.99
2019-05-30T10:32:08.887Z,99041.30
2019-05-30T10:34:40.494Z,99049.01
2019-05-30T10:37:12.070Z,99047.34
2019-05-30T10:39:45.510Z,99049.16
2019-05-30T10:42:16.940Z,99043.47
2019-05-30T10:44:49.980Z,99038.95
2019-05-30T10:47:21.839Z,99037.83
2019-05-30T10:49:53.642Z,99035.52
2019-05-30T10:52:26.270Z,99029.01
2019-05-30T10:54:57.957Z,99025.66
2019-05-30T10:57:29.721Z,99027.82
2019-05-30T11:00:01.295Z,99030.82
2019-05-30T11:02:32.910Z,99034.52
2019-05-30T11:05:04.914Z,99024.32
2019-05-30T11:08:02.122Z,99028.16
2019-05-30T11:10:39.760Z,99027.45
2019-05-30T11:13:14.865Z,99028.98
2019-05-30T11:15:48.756Z,99025.98
2019-05-30T11:18:20.711Z,99022.31
2019-05-30T11:20:52.438Z,99014.62
2019-05-30T11:23:24.055Z,99016.16
2019-05-30T11:25:56.721Z,99009.66
2019-05-30T11:28:28.419Z,99009.66
2019-05-30T11:31:04.393Z,99006.64
2019-05-30T11:33:34.349Z,99002.97
2019-05-30T11:36:05.944Z,99000.64
2019-05-30T11:38:37.528Z,99001.45
2019-05-30T11:41:09.147Z,98991.61
2019-05-30T11:43:40.746Z,98990.47
2019-05-30T11:46:12.337Z,98991.12
2019-05-30T11:48:43.914Z,98985.44
2019-05-30T11:51:15.502Z,98991.97
2019-05-30T11:53:47.128Z,98986.13
2019-05-30T11:56:19.023Z,98993.63
2019-05-30T11:58:51.828Z,98982.45
2019-05-30T12:01:23.649Z,98982.86
2019-05-30T12:03:56.464Z,98983.95
2019-05-30T12:06:28.111Z,98984.66
2019-05-30T12:08:59.694Z,98980.55
2019-05-30T12:11:31.325Z,98977.05
2019-05-30T12:14:02.964Z,98973.88
2019-05-30T12:16:34.728Z,98977.20
2019-05-30T12:19:06.400Z,98977.20
2019-05-30T12:21:37.991Z,98971.21
2019-05-30T12:24:09.891Z,98975.17
2019-05-30T12:26:41.472Z,98977.09
2019-05-30T12:29:13.088Z,98971.36
2019-05-30T12:31:44.645Z,98961.64
2019-05-30T12:34:16.242Z,98970.10
2019-05-30T12:36:47.864Z,98959.74
2019-05-30T12:39:19.489Z,98963.16
2019-05-30T12:41:51.063Z,98961.24
2019-05-30T12:44:22.658Z,98957.80
2019-05-30T12:46:55.437Z,98964.50
2019-05-30T12:49:28.261Z,98956.84
2019-05-30T12:52:00.619Z,98954.86
2019-05-30T12:54:32.407Z,98955.70
2019-05-30T12:57:03.991Z,98951.05
2019-05-30T12:59:36.765Z,98953.05
2019-05-30T13:02:08.343Z,98958.73
2019-05-30T13:04:39.930Z,98956.64
2019-05-30T13:07:11.527Z,98958.95
2019-05-30T13:09:43.144Z,98965.30
2019-05-30T13:12:14.740Z,98958.28
2019-05-30T13:14:46.368Z,98965.81
2019-05-30T13:17:17.996Z,98961.29
2019-05-30T13:19:49.578Z,98959.13
2019-05-30T13:22:21.193Z,98955.63
2019-05-30T13:24:53.095Z,98958.63
2019-05-30T13:27:24.713Z,98952.30
2019-05-30T13:29:56.316Z,98959.64
2019-05-30T13:32:27.905Z,98956.28
2019-05-30T13:35:01.581Z,98951.62
2019-05-30T13:37:33.233Z,98948.47
2019-05-30T13:40:13.769Z,98952.31
2019-05-30T13:42:38.850Z,98950.48
2019-05-30T13:45:10.826Z,98951.63
2019-05-30T13:47:42.633Z,98953.31
2019-05-30T13:50:15.799Z,98954.64
2019-05-30T13:52:47.413Z,98957.78
2019-05-30T13:55:19.209Z,98957.31
2019-05-30T13:57:50.851Z,98953.97
2019-05-30T14:00:22.968Z,98951.31
2019-05-30T14:02:56.662Z,98944.96
2019-05-30T14:05:28.228Z,98948.28
2019-05-30T14:07:59.968Z,98950.29
2019-05-30T14:10:31.917Z,98953.29
2019-05-30T14:13:04.521Z,98952.61
2019-05-30T14:15:37.365Z,98953.62
2019-05-30T14:18:09.379Z,98953.27
2019-05-30T14:20:40.950Z,98951.10
2019-05-30T14:23:12.581Z,98949.98
2019-05-30T14:25:44.134Z,98946.12
2019-05-30T14:28:15.720Z,98944.64
2019-05-30T14:30:48.422Z,98937.81
2019-05-30T14:33:20.069Z,98942.64
2019-05-30T14:35:51.617Z,98948.64
2019-05-30T14:38:23.232Z,98949.95
2019-05-30T14:40:54.799Z,98947.13
2019-05-30T14:43:26.429Z,98949.97
2019-05-30T14:45:58.035Z,98950.81
2019-05-30T14:48:29.650Z,98946.43
2019-05-30T14:51:01.267Z,98950.25
2019-05-30T14:53:32.868Z,98952.38
2019-05-30T14:56:05.019Z,98950.23
2019-05-30T14:58:36.648Z,98951.90
2019-05-30T15:01:09.341Z,98955.95
2019-05-30T15:03:40.959Z,98956.78
2019-05-30T15:06:15.338Z,98955.13
2019-05-30T15:08:46.096Z,98952.78
2019-05-30T15:11:17.733Z,98952.79
2019-05-30T15:13:49.503Z,98945.97
2019-05-30T15:16:21.173Z,98945.45
2019-05-30T15:18:52.994Z,98944.64
2019-05-30T15:21:24.618Z,98939.95
2019-05-30T15:26:46.154Z,98946.10
2019-05-30T15:29:17.764Z,98943.95
2019-05-30T15:31:50.471Z,98943.95
2019-05-30T15:34:22.032Z,98940.27
2019-05-30T15:36:53.647Z,98946.77
2019-05-30T15:39:33.189Z,98942.44
2019-05-30T15:41:58.573Z,98946.95
2019-05-30T15:44:30.261Z,98942.59
2019-05-30T15:47:01.983Z,98940.63
2019-05-30T15:49:33.587Z,98946.12
2019-05-30T15:52:05.229Z,98944.13
2019-05-30T15:54:37.042Z,98945.97
2019-05-30T15:57:09.195Z,98949.64
2019-05-30T15:59:40.805Z,98947.97
2019-05-30T16:02:12.701Z,98949.14
2019-05-30T16:04:46.945Z,98947.64
2019-05-30T16:07:18.839Z,98947.62
2019-05-30T16:09:50.399Z,98952.79
2019-05-30T16:12:22.037Z,98953.95
2019-05-30T16:14:53.595Z,98954.63
2019-05-30T16:17:27.947Z,98955.30
2019-05-30T16:19:59.537Z,98958.25
2019-05-30T16:22:31.169Z,98953.58
2019-05-30T16:25:02.834Z,98960.85
2019-05-30T16:27:34.664Z,98952.00
2019-05-30T16:30:08.835Z,98952.19
2019-05-30T16:32:40.814Z,98948.86
2019-05-30T16:35:12.486Z,98948.38
2019-05-30T16:37:44.083Z,98942.70
2019-05-30T16:40:18.303Z,98942.84
2019-05-30T16:42:49.965Z,98939.02
2019-05-30T16:45:24.907Z,98935.87
2019-05-30T16:47:55.145Z,98943.71
2019-05-30T16:50:28.277Z,98937.88
2019-05-30T16:52:59.998Z,98930.23
2019-05-30T16:55:31.633Z,98937.86
2019-05-30T16:58:03.364Z,98942.66
2019-05-30T17:00:35.127Z,98933.64
2019-05-30T17:03:07.355Z,98943.46
2019-05-30T17:05:39.152Z,98943.95
2019-05-30T17:08:12.312Z,98944.42
2019-05-30T17:10:44.566Z,98941.44
2019-05-30T17:13:17.679Z,98940.78
2019-05-30T17:15:49.741Z,98946.09
2019-05-30T17:18:22.324Z,98942.42
2019-05-30T17:20:55.968Z,98944.91
2019-05-30T17:23:27.607Z,98944.23
2019-05-30T17:25:59.217Z,98943.60
2019-05-30T17:28:31.027Z,98942.44
2019-05-30T17:31:04.381Z,98944.75
2019-05-30T17:33:36.169Z,98941.73
2019-05-30T17:36:07.842Z,98949.19
2019-05-30T17:38:39.447Z,98950.81
2019-05-30T17:41:11.105Z,98956.28
2019-05-30T17:43:43.053Z,98952.14
2019-05-30T17:46:16.744Z,98953.95
2019-05-30T17:48:48.097Z,98954.73
2019-05-30T17:51:19.824Z,98956.58
2019-05-30T17:53:51.446Z,98959.77
2019-05-30T17:56:24.012Z,98957.63
2019-05-30T17:58:55.698Z,98960.25
2019-05-30T18:01:28.194Z,98963.16
2019-05-30T18:04:00.133Z,98960.97
2019-05-30T18:06:31.723Z,98963.59
2019-05-30T18:09:04.587Z,98957.87
2019-05-30T18:11:36.294Z,98964.65
2019-05-30T18:14:07.929Z,98963.42
2019-05-30T18:16:39.512Z,98964.00
2019-05-30T18:19:11.131Z,98960.48
2019-05-30T18:21:42.710Z,98968.88
2019-05-30T18:24:14.305Z,98973.63
2019-05-30T18:26:45.922Z,98974.23
2019-05-30T18:29:18.995Z,98970.03
2019-05-30T18:31:50.876Z,98977.94
2019-05-30T18:34:22.477Z,98982.02
2019-05-30T18:36:54.096Z,98983.95
2019-05-30T18:39:26.608Z,98984.91
2019-05-30T18:41:58.424Z,98984.19
2019-05-30T18:44:32.742Z,98983.30
2019-05-30T18:47:03.480Z,98986.02
2019-05-30T18:49:35.086Z,98986.98
2019-05-30T18:52:06.695Z,98986.92
2019-05-30T18:54:38.259Z,98997.98
2019-05-30T18:57:09.871Z,98995.30
2019-05-30T18:59:41.482Z,98998.40
2019-05-30T19:02:13.076Z,99000.49
2019-05-30T19:04:44.692Z,99003.44
2019-05-30T19:07:16.317Z,99003.05
2019-05-30T19:09:47.951Z,98999.52
2019-05-30T19:12:19.557Z,98994.33
2019-05-30T19:14:51.131Z,99002.73
2019-05-30T19:17:22.810Z,98997.86
2019-05-30T19:19:54.412Z,99002.59
2019-05-30T19:22:26.071Z,99004.57
2019-05-30T19:24:57.709Z,99010.16
2019-05-30T19:27:32.397Z,99018.41
2019-05-30T19:30:02.655Z,99021.50
2019-05-30T19:32:35.074Z,99017.70
2019-05-30T19:35:07.682Z,99028.56
2019-05-30T19:37:40.300Z,99034.44
2019-05-30T19:40:13.770Z,99032.36
2019-05-30T19:42:45.460Z,99037.04
2019-05-30T19:45:18.044Z,99041.72
2019-05-30T19:47:49.669Z,99042.50
2019-05-30T19:50:21.388Z,99044.11
2019-05-30T19:52:52.971Z,99043.89
2019-05-30T19:55:24.592Z,99049.97
2019-05-30T19:57:56.198Z,99051.94
2019-05-30T20:00:29.765Z,99049.89
2019-05-30T20:03:01.628Z,99049.57
2019-05-30T20:05:34.448Z,99051.86
2019-05-30T20:08:06.385Z,99047.06
2019-05-30T20:10:39.126Z,99055.01
2019-05-30T20:13:10.909Z,99049.48
2019-05-30T20:15:43.024Z,99046.57
2019-05-30T20:18:14.682Z,99050.88
2019-05-30T20:20:56.980Z,99045.45
2019-05-30T20:23:20.798Z,99051.77
2019-05-30T20:25:52.515Z,99053.50
2019-05-30T20:28:24.220Z,99052.09
2019-05-30T20:30:55.846Z,99058.02
2019-05-30T20:33:27.500Z,99057.30
2019-05-30T20:35:59.272Z,99052.64
2019-05-30T20:38:30.872Z,99062.18
2019-05-30T20:41:02.532Z,99060.44
2019-05-30T20:43:34.948Z,99057.48
2019-05-30T20:46:20.305Z,99053.22
2019-05-30T20:48:42.785Z,99059.78
2019-05-30T20:51:21.228Z,99070.50
2019-05-30T20:53:47.646Z,99069.78
2019-05-30T20:56:19.413Z,99064.48
2019-05-30T20:58:51.064Z,99067.77
2019-05-30T21:01:22.686Z,99071.50
2019-05-30T21:03:54.301Z,99064.06
2019-05-30T21:06:25.972Z,99066.02
2019-05-30T21:08:58.177Z,99070.81
2019-05-30T21:11:31.669Z,99073.09
2019-05-30T21:14:04.678Z,99067.80
2019-05-30T21:16:37.623Z,99068.34
2019-05-30T21:19:09.258Z,99069.87
2019-05-30T21:21:42.511Z,99077.14
2019-05-30T21:24:14.202Z,99076.09
2019-05-30T21:26:46.900Z,99076.85
2019-05-30T21:29:18.622Z,99074.70
2019-05-30T21:31:50.302Z,99075.23
2019-05-30T21:34:21.909Z,99076.72
2019-05-30T21:36:53.511Z,99068.91
2019-05-30T21:39:25.130Z,99077.34
2019-05-30T21:41:56.757Z,99076.72
2019-05-30T21:44:28.345Z,99076.72
2019-05-30T21:46:59.979Z,99075.02
2019-05-30T21:49:31.697Z,99082.00
2019-05-30T21:52:03.338Z,99076.95
2019-05-30T21:54:34.941Z,99078.40
2019-05-30T21:57:06.573Z,99082.00
2019-05-30T21:59:38.172Z,99086.23
2019-05-30T22:02:10.324Z,99085.30
2019-05-30T22:04:42.501Z,99085.17
2019-05-30T22:07:14.200Z,99087.45
2019-05-30T22:09:45.788Z,99091.91
2019-05-30T22:12:17.387Z,99086.88
2019-05-30T22:14:49.869Z,99082.48
2019-05-30T22:17:21.569Z,99083.23
2019-05-30T22:19:53.141Z,99087.79
2019-05-30T22:22:24.733Z,99086.59
2019-05-30T22:24:56.289Z,99089.50
2019-05-30T22:27:27.896Z,99090.12
2019-05-30T22:30:00.568Z,99086.29
2019-05-30T22:32:32.164Z,99086.55
2019-05-30T22:35:03.805Z,99090.15
2019-05-30T22:37:35.469Z,99088.13
2019-05-30T22:40:07.352Z,99087.89
2019-05-30T22:42:39.004Z,99088.02
2019-05-30T22:45:11.099Z,99091.28
2019-05-30T22:47:42.668Z,99089.27
2019-05-30T22:50:14.252Z,99091.67
2019-05-30T22:52:46.924Z,99085.81
2019-05-30T22:55:18.500Z,99087.59
2019-05-30T22:57:50.385Z,99085.94
2019-05-30T23:00:22.102Z,99088.58
2019-05-30T23:02:54.071Z,99084.38
2019-05-30T23:05:25.680Z,99078.28
2019-05-30T23:07:57.255Z,99085.53
2019-05-30T23:10:28.819Z,99077.16
2019-05-30T23:13:01.712Z,99078.97
2019-05-30T23:15:33.305Z,99078.70
2019-05-30T23:18:04.873Z,99080.52
2019-05-30T23:20:36.463Z,99078.83
2019-05-30T23:23:08.090Z,99075.12
2019-05-30T23:25:39.667Z,99078.71
2019-05-30T23:28:12.350Z,99069.72
2019-05-30T23:30:43.948Z,99074.41
2019-05-30T23:33:15.503Z,99072.60
2019-05-30T23:35:48.115Z,99078.13
2019-05-30T23:38:19.741Z,99074.50
2019-05-30T23:40:51.334Z,99070.53
2019-05-30T23:43:22.895Z,99068.02
2019-05-30T23:45:55.674Z,99066.88
2019-05-30T23:48:27.442Z,99062.55
2019-05-30T23:51:00.046Z,99060.53
2019-05-30T23:53:31.713Z,99064.41
2019-05-30T23:56:04.485Z,99062.97
2019-05-30T23:58:36.122Z,99062.40
